createdAt,value
2019-05-03T00:00:42.526Z,101163.89
2019-05-03T00:03:12.303Z,101171.91
2019-05-03T00:06:01.766Z,101173.39
2019-05-03T00:08:28.910Z,101184.07
2019-05-03T00:11:15.377Z,101175.37
2019-05-03T00:13:42.434Z,101180.38
2019-05-03T00:16:18.538Z,101175.80
2019-05-03T00:18:50.041Z,101168.34
2019-05-03T00:21:19.330Z,101168.92
2019-05-03T00:23:46.323Z,101171.80
2019-05-03T00:26:13.373Z,101174.09
2019-05-03T00:28:42.640Z,101174.15
2019-05-03T00:31:15.901Z,101169.11
2019-05-03T00:33:48.443Z,101174.08
2019-05-03T00:36:39.002Z,101172.80
2019-05-03T00:39:22.131Z,101171.48
2019-05-03T00:41:49.731Z,101178.59
2019-05-03T00:44:16.800Z,101183.46
2019-05-03T00:46:43.805Z,101176.91
2019-05-03T00:49:11.964Z,101176.87
2019-05-03T00:51:39.091Z,101173.00
2019-05-03T00:54:08.264Z,101174.86
2019-05-03T00:56:35.273Z,101175.61
2019-05-03T00:59:02.427Z,101170.00
2019-05-03T01:01:29.380Z,101173.83
2019-05-03T01:03:58.224Z,101174.58
2019-05-03T01:06:25.216Z,101176.17
2019-05-03T01:08:52.441Z,101166.58
2019-05-03T01:11:24.590Z,101179.77
2019-05-03T01:13:58.076Z,101174.02
2019-05-03T01:16:27.975Z,101175.66
2019-05-03T01:18:58.334Z,101174.39
2019-05-03T01:21:27.991Z,101179.86
2019-05-03T01:23:58.028Z,101178.60
2019-05-03T01:26:25.074Z,101186.59
2019-05-03T01:28:52.313Z,101179.03
2019-05-03T01:31:23.627Z,101183.41
2019-05-03T01:33:51.655Z,101175.09
2019-05-03T01:36:18.866Z,101185.57
2019-05-03T01:38:48.677Z,101185.09
2019-05-03T01:41:21.656Z,101175.64
2019-05-03T01:43:52.855Z,101182.39
2019-05-03T01:46:23.136Z,101182.72
2019-05-03T01:49:12.689Z,101181.08
2019-05-03T01:52:05.117Z,101183.64
2019-05-03T01:54:32.256Z,101181.11
2019-05-03T01:56:59.366Z,101186.91
2019-05-03T01:59:26.452Z,101174.80
2019-05-03T02:02:13.847Z,101177.42
2019-05-03T02:04:53.381Z,101182.89
2019-05-03T02:07:22.348Z,101180.55
2019-05-03T02:09:49.445Z,101186.26
2019-05-03T02:12:16.513Z,101180.98
2019-05-03T02:14:45.339Z,101188.28
2019-05-03T02:17:12.525Z,101197.06
2019-05-03T02:19:42.130Z,101203.44
2019-05-03T02:22:12.099Z,101210.81
2019-05-03T02:24:39.243Z,101189.29
2019-05-03T02:27:12.590Z,101187.78
2019-05-03T02:29:42.159Z,101194.62
2019-05-03T02:32:12.929Z,101188.38
2019-05-03T02:34:39.409Z,101196.94
2019-05-03T02:37:06.473Z,101197.18
2019-05-03T02:39:33.724Z,101205.08
2019-05-03T02:42:10.132Z,101201.99
2019-05-03T02:44:29.545Z,101214.18
2019-05-03T02:47:20.511Z,101225.61
2019-05-03T02:49:56.237Z,101234.25
2019-05-03T02:52:37.071Z,101241.72
2019-05-03T02:55:06.266Z,101205.58
2019-05-03T02:57:35.220Z,101208.67
2019-05-03T03:00:05.113Z,101204.41
2019-05-03T03:02:32.831Z,101203.67
2019-05-03T03:05:05.635Z,101208.67
2019-05-03T03:07:33.139Z,101205.79
2019-05-03T03:10:05.343Z,101203.51
2019-05-03T03:12:35.393Z,101206.94
2019-05-03T03:15:06.351Z,101212.67
2019-05-03T03:17:37.906Z,101214.45
2019-05-03T03:20:07.946Z,101213.95
2019-05-03T03:22:41.144Z,101216.81
2019-05-03T03:25:17.543Z,101215.83
2019-05-03T03:27:46.668Z,101221.07
2019-05-03T03:30:38.087Z,101225.52
2019-05-03T03:33:09.511Z,101228.44
2019-05-03T03:35:42.239Z,101220.94
2019-05-03T03:38:15.493Z,101224.56
2019-05-03T03:40:45.332Z,101222.50
2019-05-03T03:43:15.705Z,101232.48
2019-05-03T03:45:45.439Z,101231.17
2019-05-03T03:48:15.787Z,101232.17
2019-05-03T03:50:46.243Z,101229.28
2019-05-03T03:53:21.349Z,101233.63
2019-05-03T03:55:51.218Z,101236.81
2019-05-03T03:58:22.752Z,101235.34
2019-05-03T04:00:49.889Z,101233.95
2019-05-03T04:03:20.786Z,101243.00
2019-05-03T04:05:49.568Z,101239.27
2019-05-03T04:08:16.756Z,101238.67
2019-05-03T04:10:46.618Z,101246.06
2019-05-03T04:13:15.999Z,101255.46
2019-05-03T04:15:56.802Z,101249.98
2019-05-03T04:18:45.626Z,101254.30
2019-05-03T04:21:16.254Z,101251.37
2019-05-03T04:23:46.449Z,101255.20
2019-05-03T04:26:16.249Z,101257.66
2019-05-03T04:28:45.319Z,101253.66
2019-05-03T04:31:16.272Z,101264.87
2019-05-03T04:33:48.770Z,101254.41
2019-05-03T04:36:16.106Z,101265.92
2019-05-03T04:38:45.310Z,101268.80
2019-05-03T04:41:12.126Z,101270.91
2019-05-03T04:43:39.102Z,101270.42
2019-05-03T04:46:16.195Z,101271.07
2019-05-03T04:48:51.398Z,101276.30
2019-05-03T04:51:18.459Z,101277.03
2019-05-03T04:53:50.754Z,101278.73
2019-05-03T04:56:17.728Z,101274.61
2019-05-03T04:58:45.895Z,101285.90
2019-05-03T05:01:15.804Z,101277.65
2019-05-03T05:03:46.126Z,101284.87
2019-05-03T05:06:18.191Z,101288.14
2019-05-03T05:08:55.141Z,101285.19
2019-05-03T05:11:22.230Z,101285.19
2019-05-03T05:13:49.237Z,101282.71
2019-05-03T05:16:18.789Z,101296.70
2019-05-03T05:18:52.019Z,101290.28
2019-05-03T05:21:27.042Z,101284.20
2019-05-03T05:24:05.570Z,101291.77
2019-05-03T05:26:48.937Z,101295.38
2019-05-03T05:29:18.682Z,101287.72
2019-05-03T05:31:45.708Z,101289.09
2019-05-03T05:34:15.380Z,101288.75
2019-05-03T05:36:42.699Z,101296.33
2019-05-03T05:39:10.770Z,101312.30
2019-05-03T05:41:37.762Z,101309.11
2019-05-03T05:44:05.392Z,101312.53
2019-05-03T05:46:38.263Z,101307.43
2019-05-03T05:49:10.033Z,101307.17
2019-05-03T05:51:37.003Z,101307.17
2019-05-03T05:54:06.232Z,101305.52
2019-05-03T05:56:47.856Z,101310.63
2019-05-03T05:59:34.958Z,101309.14
2019-05-03T06:02:08.070Z,101301.92
2019-05-03T06:04:35.094Z,101301.92
2019-05-03T06:07:31.328Z,101295.31
2019-05-03T06:10:14.723Z,101301.92
2019-05-03T06:12:55.786Z,101291.18
2019-05-03T06:15:44.650Z,101299.02
2019-05-03T06:18:24.930Z,101300.27
2019-05-03T06:21:05.926Z,101286.04
2019-05-03T06:23:37.528Z,101298.09
2019-05-03T06:26:25.298Z,101304.89
2019-05-03T06:28:54.470Z,101315.27
2019-05-03T06:31:34.395Z,101314.80
2019-05-03T06:34:01.429Z,101314.80
2019-05-03T06:36:31.674Z,101303.88
2019-05-03T06:39:02.028Z,101305.78
2019-05-03T06:41:28.992Z,101310.30
2019-05-03T06:43:56.008Z,101304.00
2019-05-03T06:46:42.582Z,101311.67
2019-05-03T06:49:10.094Z,101307.72
2019-05-03T06:51:39.999Z,101313.59
2019-05-03T06:54:05.946Z,101310.31
2019-05-03T06:56:35.010Z,101312.51
2019-05-03T06:59:02.737Z,101312.51
2019-05-03T07:01:36.299Z,101320.37
2019-05-03T07:04:24.572Z,101325.35
2019-05-03T07:07:09.350Z,101325.35
2019-05-03T07:09:46.365Z,101321.37
2019-05-03T07:12:14.878Z,101317.16
2019-05-03T07:14:42.105Z,101322.04
2019-05-03T07:17:09.195Z,101319.52
2019-05-03T07:19:36.157Z,101319.52
2019-05-03T07:22:05.812Z,101325.35
2019-05-03T07:24:40.658Z,101325.39
2019-05-03T07:27:10.046Z,101331.61
2019-05-03T07:29:37.051Z,101325.81
2019-05-03T07:32:05.173Z,101325.81
2019-05-03T07:34:32.468Z,101329.27
2019-05-03T07:37:00.227Z,101313.39
2019-05-03T07:39:27.226Z,101321.40
2019-05-03T07:41:56.520Z,101322.63
2019-05-03T07:44:30.201Z,101313.20
2019-05-03T07:46:57.254Z,101317.37
2019-05-03T07:49:28.903Z,101317.37
2019-05-03T07:51:58.222Z,101321.18
2019-05-03T07:54:25.256Z,101318.05
2019-05-03T07:56:57.491Z,101318.26
2019-05-03T07:59:25.050Z,101323.23
2019-05-03T08:01:57.309Z,101324.80
2019-05-03T08:04:25.513Z,101329.39
2019-05-03T08:06:54.800Z,101329.41
2019-05-03T08:09:21.570Z,101321.16
2019-05-03T08:11:49.751Z,101329.77
2019-05-03T08:14:18.229Z,101335.18
2019-05-03T08:16:45.676Z,101335.20
2019-05-03T08:19:17.764Z,101339.17
2019-05-03T08:21:47.829Z,101322.91
2019-05-03T08:24:15.044Z,101322.39
2019-05-03T08:26:42.168Z,101330.83
2019-05-03T08:29:18.566Z,101330.89
2019-05-03T08:32:07.746Z,101332.41
2019-05-03T08:34:45.412Z,101332.37
2019-05-03T08:37:27.974Z,101325.81
2019-05-03T08:40:01.286Z,101319.61
2019-05-03T08:42:28.281Z,101321.45
2019-05-03T08:44:55.441Z,101319.22
2019-05-03T08:47:24.778Z,101312.25
2019-05-03T08:49:51.921Z,101316.55
2019-05-03T08:52:27.309Z,101323.40
2019-05-03T08:55:00.278Z,101322.66
2019-05-03T08:57:27.269Z,101294.80
2019-05-03T08:59:55.977Z,101294.80
2019-05-03T09:02:22.938Z,101310.78
2019-05-03T09:04:49.909Z,101302.61
2019-05-03T09:07:18.340Z,101302.40
2019-05-03T09:10:05.495Z,101302.92
2019-05-03T09:12:55.838Z,101314.03
2019-05-03T09:15:24.528Z,101312.63
2019-05-03T09:17:51.742Z,101312.63
2019-05-03T09:20:18.731Z,101296.22
2019-05-03T09:22:47.415Z,101309.44
2019-05-03T09:25:15.480Z,101309.55
2019-05-03T09:27:47.782Z,101303.92
2019-05-03T09:30:17.694Z,101303.88
2019-05-03T09:32:55.719Z,101300.99
2019-05-03T09:35:32.048Z,101299.67
2019-05-03T09:37:55.457Z,101302.61
2019-05-03T09:40:24.474Z,101301.72
2019-05-03T09:42:51.330Z,101299.71
2019-05-03T09:45:18.368Z,101299.58
2019-05-03T09:47:52.131Z,101308.54
2019-05-03T09:50:19.102Z,101310.89
2019-05-03T09:52:50.448Z,101314.48
2019-05-03T09:55:25.244Z,101300.34
2019-05-03T09:57:55.555Z,101296.91
2019-05-03T10:00:24.513Z,101307.16
2019-05-03T10:02:51.559Z,101299.30
2019-05-03T10:05:18.881Z,101310.19
2019-05-03T10:07:48.877Z,101298.92
2019-05-03T10:10:15.840Z,101305.00
2019-05-03T10:12:42.824Z,101299.50
2019-05-03T10:15:15.315Z,101302.70
2019-05-03T10:17:49.016Z,101300.50
2019-05-03T10:20:18.363Z,101289.14
2019-05-03T10:22:47.736Z,101287.05
2019-05-03T10:25:16.781Z,101288.83
2019-05-03T10:27:51.020Z,101294.14
2019-05-03T10:30:25.762Z,101275.58
2019-05-03T10:32:59.655Z,101287.08
2019-05-03T10:35:29.540Z,101284.64
2019-05-03T10:37:56.520Z,101279.88
2019-05-03T10:40:31.884Z,101279.02
2019-05-03T10:43:02.087Z,101284.80
2019-05-03T10:45:29.032Z,101278.94
2019-05-03T10:47:56.011Z,101296.08
2019-05-03T10:50:25.208Z,101277.11
2019-05-03T10:53:09.252Z,101294.02
2019-05-03T10:55:36.337Z,101306.62
2019-05-03T10:58:17.555Z,101305.23
2019-05-03T11:00:52.729Z,101301.39
2019-05-03T11:03:18.592Z,101305.25
2019-05-03T11:05:46.781Z,101291.66
2019-05-03T11:08:14.549Z,101287.01
2019-05-03T11:10:44.833Z,101296.87
2019-05-03T11:13:16.019Z,101295.55
2019-05-03T11:15:44.747Z,101295.55
2019-05-03T11:18:11.730Z,101294.95
2019-05-03T11:20:38.714Z,101294.95
2019-05-03T11:23:07.461Z,101288.27
2019-05-03T11:25:34.896Z,101292.68
2019-05-03T11:28:06.202Z,101288.83
2019-05-03T11:30:36.195Z,101280.94
2019-05-03T11:33:11.426Z,101283.63
2019-05-03T11:35:56.775Z,101285.54
2019-05-03T11:38:30.066Z,101281.58
2019-05-03T11:40:57.035Z,101274.19
2019-05-03T11:43:29.179Z,101275.98
2019-05-03T11:45:56.141Z,101275.30
2019-05-03T11:48:25.115Z,101273.59
2019-05-03T11:50:58.352Z,101261.50
2019-05-03T11:53:25.356Z,101264.47
2019-05-03T11:55:52.381Z,101258.62
2019-05-03T11:58:27.026Z,101245.98
2019-05-03T12:01:21.156Z,101246.01
2019-05-03T12:03:52.303Z,101255.36
2019-05-03T12:06:19.286Z,101263.43
2019-05-03T12:08:48.588Z,101267.46
2019-05-03T12:11:15.647Z,101262.94
2019-05-03T12:13:42.649Z,101263.77
2019-05-03T12:16:20.000Z,101256.87
2019-05-03T12:18:50.243Z,101264.84
2019-05-03T12:21:13.011Z,101255.67
2019-05-03T12:23:41.582Z,101261.22
2019-05-03T12:26:12.905Z,101252.33
2019-05-03T12:28:37.757Z,101252.51
2019-05-03T12:31:25.802Z,101259.72
2019-05-03T12:33:46.584Z,101247.11
2019-05-03T12:36:15.705Z,101231.46
2019-05-03T12:38:42.665Z,101245.98
2019-05-03T12:41:09.612Z,101237.00
2019-05-03T12:43:37.405Z,101237.17
2019-05-03T12:46:08.452Z,101219.64
2019-05-03T12:48:35.716Z,101219.64
2019-05-03T12:51:03.707Z,101223.05
2019-05-03T12:53:31.610Z,101221.58
2019-05-03T12:55:58.591Z,101222.66
2019-05-03T12:58:46.747Z,101219.61
2019-05-03T13:01:22.148Z,101209.84
2019-05-03T13:04:00.615Z,101205.80
2019-05-03T13:06:31.375Z,101212.69
2019-05-03T13:09:00.042Z,101210.21
2019-05-03T13:11:36.464Z,101235.34
2019-05-03T13:14:04.774Z,101231.92
2019-05-03T13:16:32.052Z,101224.83
2019-05-03T13:18:59.542Z,101224.94
2019-05-03T13:21:28.705Z,101223.81
2019-05-03T13:23:55.736Z,101222.54
2019-05-03T13:26:22.722Z,101223.22
2019-05-03T13:28:59.479Z,101218.20
2019-05-03T13:31:25.424Z,101218.55
2019-05-03T13:33:54.769Z,101199.42
2019-05-03T13:36:21.616Z,101199.42
2019-05-03T13:38:48.584Z,101212.55
2019-05-03T13:41:16.953Z,101202.58
2019-05-03T13:43:45.441Z,101196.64
2019-05-03T13:46:12.682Z,101189.84
2019-05-03T13:48:45.288Z,101186.78
2019-05-03T13:51:10.323Z,101177.05
2019-05-03T13:53:37.325Z,101177.05
2019-05-03T13:56:11.057Z,101176.64
2019-05-03T13:58:38.006Z,101194.66
2019-05-03T14:01:05.480Z,101178.69
2019-05-03T14:03:35.020Z,101178.78
2019-05-03T14:06:01.893Z,101182.48
2019-05-03T14:08:31.086Z,101184.55
2019-05-03T14:10:58.158Z,101170.59
2019-05-03T14:13:25.165Z,101172.44
2019-05-03T14:15:52.302Z,101171.39
2019-05-03T14:18:19.286Z,101171.58
2019-05-03T14:20:55.210Z,101167.89
2019-05-03T14:23:22.421Z,101156.16
2019-05-03T14:25:49.403Z,101172.77
2019-05-03T14:28:16.358Z,101169.23
2019-05-03T14:30:45.569Z,101162.61
2019-05-03T14:33:12.528Z,101156.79
2019-05-03T14:35:39.485Z,101151.05
2019-05-03T14:38:06.457Z,101162.00
2019-05-03T14:40:34.794Z,101141.29
2019-05-03T14:43:04.852Z,101156.04
2019-05-03T14:45:31.834Z,101144.87
2019-05-03T14:48:00.706Z,101144.17
2019-05-03T14:50:27.811Z,101144.53
2019-05-03T14:52:57.041Z,101146.73
2019-05-03T14:55:36.412Z,101140.72
2019-05-03T14:58:21.604Z,101140.56
2019-05-03T15:01:04.827Z,101145.17
2019-05-03T15:03:35.076Z,101140.14
2019-05-03T15:06:05.172Z,101140.44
2019-05-03T15:08:35.089Z,101139.48
2019-05-03T15:11:05.280Z,101146.48
2019-05-03T15:13:32.436Z,101147.56
2019-05-03T15:15:59.457Z,101148.20
2019-05-03T15:18:26.424Z,101147.32
2019-05-03T15:20:54.928Z,101142.56
2019-05-03T15:23:22.197Z,101128.77
2019-05-03T15:25:52.124Z,101128.77
2019-05-03T15:28:19.087Z,101131.00
2019-05-03T15:30:47.262Z,101133.70
2019-05-03T15:33:15.223Z,101132.48
2019-05-03T15:35:46.521Z,101125.98
2019-05-03T15:38:14.505Z,101125.98
2019-05-03T15:40:46.180Z,101128.89
2019-05-03T15:43:28.934Z,101132.13
2019-05-03T15:46:21.922Z,101129.63
2019-05-03T15:48:55.759Z,101136.35
2019-05-03T15:51:24.423Z,101137.01
2019-05-03T15:53:55.188Z,101131.81
2019-05-03T15:56:27.158Z,101119.98
2019-05-03T15:58:55.179Z,101122.64
2019-05-03T16:01:27.390Z,101129.36
2019-05-03T16:03:59.595Z,101126.95
2019-05-03T16:06:26.618Z,101120.05
2019-05-03T16:08:56.578Z,101120.05
2019-05-03T16:11:25.428Z,101129.15
2019-05-03T16:13:52.448Z,101123.98
2019-05-03T16:16:19.492Z,101123.98
2019-05-03T16:18:46.467Z,101121.81
2019-05-03T16:21:14.613Z,101135.37
2019-05-03T16:23:46.297Z,101133.81
2019-05-03T16:26:12.125Z,101133.81
2019-05-03T16:28:49.242Z,101131.48
2019-05-03T16:31:18.800Z,101140.11
2019-05-03T16:33:45.825Z,101145.79
2019-05-03T16:36:14.838Z,101146.49
2019-05-03T16:38:44.887Z,101136.95
2019-05-03T16:41:12.001Z,101144.64
2019-05-03T16:43:39.016Z,101144.64
2019-05-03T16:46:06.012Z,101140.88
2019-05-03T16:48:33.010Z,101137.45
2019-05-03T16:51:04.580Z,101137.45
2019-05-03T16:53:34.891Z,101126.40
2019-05-03T16:56:04.958Z,101139.66
2019-05-03T16:58:31.961Z,101139.66
2019-05-03T17:01:01.759Z,101133.39
2019-05-03T17:03:41.454Z,101137.33
2019-05-03T17:06:45.989Z,101126.31
2019-05-03T17:09:35.427Z,101125.42
2019-05-03T17:12:25.529Z,101144.94
2019-05-03T17:14:54.363Z,101144.09
2019-05-03T17:17:25.212Z,101144.45
2019-05-03T17:19:52.254Z,101144.20
2019-05-03T17:22:25.042Z,101144.61
2019-05-03T17:24:55.558Z,101134.20
2019-05-03T17:27:27.023Z,101134.80
2019-05-03T17:29:55.275Z,101140.68
2019-05-03T17:32:24.425Z,101147.11
2019-05-03T17:34:56.753Z,101143.44
2019-05-03T17:37:26.389Z,101142.67
2019-05-03T17:40:16.075Z,101134.33
2019-05-03T17:43:10.240Z,101140.77
2019-05-03T17:45:40.869Z,101152.36
2019-05-03T17:48:10.321Z,101169.50
2019-05-03T17:50:40.306Z,101169.72
2019-05-03T17:53:25.370Z,101150.84
2019-05-03T17:55:59.211Z,101152.16
2019-05-03T17:58:35.523Z,101144.48
2019-05-03T18:01:22.749Z,101139.94
2019-05-03T18:04:03.942Z,101140.34
2019-05-03T18:06:25.575Z,101129.73
2019-05-03T18:09:27.556Z,101128.78
2019-05-03T18:11:57.516Z,101127.17
2019-05-03T18:14:30.054Z,101126.23
2019-05-03T18:17:02.535Z,101120.26
2019-05-03T18:19:29.501Z,101121.04
2019-05-03T18:21:59.166Z,101121.19
2019-05-03T18:24:28.199Z,101122.77
2019-05-03T18:26:57.074Z,101124.97
2019-05-03T18:29:25.267Z,101110.70
2019-05-03T18:31:55.071Z,101113.42
2019-05-03T18:34:23.049Z,101114.72
2019-05-03T18:36:54.090Z,101106.23
2019-05-03T18:39:21.087Z,101108.98
2019-05-03T18:41:48.060Z,101106.01
2019-05-03T18:44:40.606Z,101101.44
2019-05-03T18:47:11.467Z,101103.45
2019-05-03T18:49:38.430Z,101098.72
2019-05-03T18:52:05.399Z,101105.45
2019-05-03T18:54:39.383Z,101100.63
2019-05-03T18:57:07.819Z,101099.35
2019-05-03T18:59:34.880Z,101093.08
2019-05-03T19:02:01.840Z,101096.73
2019-05-03T19:04:42.072Z,101100.80
2019-05-03T19:07:32.129Z,101097.79
2019-05-03T19:10:16.795Z,101095.81
2019-05-03T19:12:55.209Z,101096.76
2019-05-03T19:15:22.424Z,101095.14
2019-05-03T19:18:12.678Z,101092.06
2019-05-03T19:20:41.367Z,101093.30
2019-05-03T19:23:10.515Z,101098.00
2019-05-03T19:25:45.826Z,101098.91
2019-05-03T19:28:10.666Z,101089.67
2019-05-03T19:30:44.463Z,101094.42
2019-05-03T19:33:15.516Z,101093.53
2019-05-03T19:35:44.447Z,101091.75
2019-05-03T19:38:11.618Z,101089.73
2019-05-03T19:40:38.582Z,101086.70
2019-05-03T19:43:07.096Z,101085.88
2019-05-03T19:45:35.804Z,101082.34
2019-05-03T19:48:04.918Z,101079.80
2019-05-03T19:50:32.153Z,101080.16
2019-05-03T19:53:11.416Z,101105.25
2019-05-03T19:55:40.683Z,101102.03
2019-05-03T19:58:07.686Z,101094.97
2019-05-03T20:00:47.192Z,101083.44
2019-05-03T20:03:20.113Z,101087.42
2019-05-03T20:05:59.324Z,101088.17
2019-05-03T20:08:35.925Z,101096.28
2019-05-03T20:11:17.497Z,101091.94
2019-05-03T20:13:46.090Z,101086.14
2019-05-03T20:16:15.787Z,101081.32
2019-05-03T20:18:45.099Z,101077.84
2019-05-03T20:21:14.974Z,101081.77
2019-05-03T20:23:42.229Z,101072.30
2019-05-03T20:26:09.207Z,101076.36
2019-05-03T20:28:36.172Z,101075.19
2019-05-03T20:31:05.785Z,101075.75
2019-05-03T20:33:35.157Z,101072.10
2019-05-03T20:36:01.676Z,101066.53
2019-05-03T20:38:31.713Z,101075.78
2019-05-03T20:40:58.669Z,101089.61
2019-05-03T20:43:47.949Z,101081.80
2019-05-03T20:46:18.348Z,101083.34
2019-05-03T20:48:47.532Z,101069.60
2019-05-03T20:51:14.956Z,101073.30
2019-05-03T20:53:42.061Z,101073.30
2019-05-03T20:56:10.356Z,101079.74
2019-05-03T20:58:45.140Z,101077.87
2019-05-03T21:01:12.115Z,101077.13
2019-05-03T21:03:41.478Z,101078.85
2019-05-03T21:06:09.956Z,101080.64
2019-05-03T21:08:52.246Z,101079.09
2019-05-03T21:11:11.959Z,101076.93
2019-05-03T21:13:45.802Z,101079.45
2019-05-03T21:16:38.774Z,101075.11
2019-05-03T21:19:24.772Z,101072.20
2019-05-03T21:21:58.071Z,101076.45
2019-05-03T21:24:38.756Z,101073.33
2019-05-03T21:27:05.759Z,101066.00
2019-05-03T21:29:35.673Z,101071.09
2019-05-03T21:32:05.298Z,101061.66
2019-05-03T21:34:34.559Z,101056.52
2019-05-03T21:37:04.912Z,101062.92
2019-05-03T21:39:31.867Z,101057.63
2019-05-03T21:42:01.134Z,101056.83
2019-05-03T21:44:32.231Z,101049.50
2019-05-03T21:47:40.128Z,101053.48
2019-05-03T21:50:14.604Z,101047.17
2019-05-03T21:52:47.612Z,101049.83
2019-05-03T21:55:14.570Z,101047.21
2019-05-03T21:57:41.606Z,101044.45
2019-05-03T22:00:11.496Z,101037.02
2019-05-03T22:02:38.536Z,101044.04
2019-05-03T22:05:05.503Z,101036.37
2019-05-03T22:07:32.459Z,101043.47
2019-05-03T22:09:59.467Z,101041.61
2019-05-03T22:12:26.512Z,101036.38
2019-05-03T22:15:05.116Z,101045.34
2019-05-03T22:17:51.941Z,101040.62
2019-05-03T22:20:26.375Z,101035.30
2019-05-03T22:23:22.122Z,101038.98
2019-05-03T22:25:49.125Z,101033.75
2019-05-03T22:28:16.063Z,101030.94
2019-05-03T22:30:45.426Z,101027.58
2019-05-03T22:33:14.428Z,101027.96
2019-05-03T22:35:41.304Z,101024.73
2019-05-03T22:38:08.272Z,101023.29
2019-05-03T22:40:38.085Z,101015.28
2019-05-03T22:43:05.074Z,101023.66
2019-05-03T22:45:34.879Z,101021.36
2019-05-03T22:48:05.611Z,101015.80
2019-05-03T22:50:34.467Z,101011.38
2019-05-03T22:53:08.198Z,101006.33
2019-05-03T22:55:35.149Z,101017.48
2019-05-03T22:58:02.169Z,101017.68
2019-05-03T23:00:29.165Z,101013.42
2019-05-03T23:02:56.251Z,101006.22
2019-05-03T23:05:23.198Z,101006.73
2019-05-03T23:07:50.521Z,101006.13
2019-05-03T23:10:17.863Z,100997.62
2019-05-03T23:12:47.976Z,100999.35
2019-05-03T23:15:18.807Z,100993.61
2019-05-03T23:17:48.077Z,100997.91
2019-05-03T23:20:25.504Z,100999.64
2019-05-03T23:22:54.802Z,100997.99
2019-05-03T23:25:25.957Z,100998.61
2019-05-03T23:27:55.009Z,100989.55
2019-05-03T23:30:24.894Z,100997.06
2019-05-03T23:32:54.912Z,100990.58
2019-05-03T23:35:21.896Z,100986.09
2019-05-03T23:37:48.882Z,100987.59
2019-05-03T23:40:15.921Z,100983.42
2019-05-03T23:42:43.053Z,100983.19
2019-05-03T23:45:14.895Z,100985.42
2019-05-03T23:47:45.237Z,100976.03
2019-05-03T23:50:15.891Z,100980.99
2019-05-03T23:52:45.330Z,100977.50
2019-05-03T23:55:36.319Z,100974.27
2019-05-03T23:58:08.585Z,100960.54
